createdAt,value
2022-12-15T00:00:35.367Z,97001.78
2022-12-15T00:03:25.523Z,97016.94
2022-12-15T00:06:12.110Z,97017.81
2022-12-15T00:08:59.914Z,97030.47
2022-12-15T00:11:46.145Z,97027.94
2022-12-15T00:14:32.588Z,97030.53
2022-12-15T00:17:18.994Z,97038.06
2022-12-15T00:20:05.325Z,97038.94
2022-12-15T00:22:51.482Z,97040.59
2022-12-15T00:25:38.922Z,97040.66
2022-12-15T00:28:25.309Z,97049.84
2022-12-15T00:31:11.729Z,97042.25
2022-12-15T00:33:57.829Z,97038.06
2022-12-15T00:36:44.197Z,97042.41
2022-12-15T00:39:18.591Z,97049.94
2022-12-15T00:41:48.484Z,97051.66
2022-12-15T00:44:20.579Z,97042.28
2022-12-15T00:46:54.600Z,97049.06
2022-12-15T00:49:41.035Z,97058.38
2022-12-15T00:52:27.919Z,97071.00
2022-12-15T00:55:14.150Z,97074.50
2022-12-15T00:58:01.726Z,97071.19
2022-12-15T01:00:48.294Z,97082.16
2022-12-15T01:03:38.062Z,97077.13
2022-12-15T01:06:25.638Z,97083.00
2022-12-15T01:09:11.592Z,97075.41
2022-12-15T01:11:58.176Z,97081.31
2022-12-15T01:14:45.960Z,97083.88
2022-12-15T01:17:32.102Z,97082.25
2022-12-15T01:20:18.474Z,97088.94
2022-12-15T01:22:47.510Z,97095.59
2022-12-15T01:25:16.867Z,97088.06
2022-12-15T01:27:45.729Z,97092.19
2022-12-15T01:30:18.095Z,97111.59
2022-12-15T01:32:47.430Z,97105.72
2022-12-15T01:35:17.692Z,97104.94
2022-12-15T01:37:50.016Z,97102.38
2022-12-15T01:40:39.218Z,97114.25
2022-12-15T01:43:14.062Z,97112.59
2022-12-15T01:45:55.418Z,97109.19
2022-12-15T01:48:30.992Z,97106.59
2022-12-15T01:51:07.262Z,97105.78
2022-12-15T01:53:40.944Z,97106.59
2022-12-15T01:56:10.782Z,97110.91
2022-12-15T01:58:43.110Z,97116.81
2022-12-15T02:01:13.658Z,97115.13
2022-12-15T02:03:43.536Z,97115.97
2022-12-15T02:06:12.793Z,97118.50
2022-12-15T02:08:42.962Z,97116.88
2022-12-15T02:11:38.342Z,97109.25
2022-12-15T02:14:08.274Z,97109.19
2022-12-15T02:16:56.950Z,97116.06
2022-12-15T02:19:54.593Z,97120.28
2022-12-15T02:22:33.167Z,97128.69
2022-12-15T02:25:23.110Z,97127.78
2022-12-15T02:28:00.223Z,97123.59
2022-12-15T02:30:45.707Z,97136.19
2022-12-15T02:33:16.575Z,97131.13
2022-12-15T02:35:58.258Z,97128.59
2022-12-15T02:38:35.962Z,97128.66
2022-12-15T02:41:07.283Z,97115.22
2022-12-15T02:43:38.839Z,97119.44
2022-12-15T02:46:17.652Z,97129.53
2022-12-15T02:48:56.396Z,97137.22
2022-12-15T02:51:36.160Z,97143.94
2022-12-15T02:54:25.541Z,97139.66
2022-12-15T02:57:03.849Z,97137.94
2022-12-15T02:59:39.471Z,97132.00
2022-12-15T03:02:11.214Z,97131.22
2022-12-15T03:04:40.856Z,97139.59
2022-12-15T03:07:11.163Z,97150.59
2022-12-15T03:09:39.923Z,97139.66
2022-12-15T03:12:10.596Z,97151.53
2022-12-15T03:14:39.378Z,97151.53
2022-12-15T03:17:09.827Z,97145.63
2022-12-15T03:19:38.551Z,97151.53
2022-12-15T03:22:08.672Z,97144.72
2022-12-15T03:24:37.840Z,97150.59
2022-12-15T03:27:06.503Z,97156.47
2022-12-15T03:29:35.383Z,97153.13
2022-12-15T03:32:04.285Z,97164.94
2022-12-15T03:34:34.367Z,97160.75
2022-12-15T03:37:03.142Z,97158.19
2022-12-15T03:39:31.973Z,97149.78
2022-12-15T03:42:00.669Z,97156.53
2022-12-15T03:44:29.436Z,97169.94
2022-12-15T03:47:02.939Z,97166.63
2022-12-15T03:49:33.306Z,97165.81
2022-12-15T03:52:02.579Z,97174.28
2022-12-15T03:54:31.753Z,97169.19
2022-12-15T03:57:00.626Z,97173.41
2022-12-15T03:59:29.557Z,97181.81
2022-12-15T04:01:58.356Z,97193.59
2022-12-15T04:04:27.099Z,97195.25
2022-12-15T04:06:57.370Z,97200.34
2022-12-15T04:09:26.188Z,97194.47
2022-12-15T04:11:55.071Z,97193.59
2022-12-15T04:14:23.727Z,97190.28
2022-12-15T04:16:52.639Z,97191.13
2022-12-15T04:19:39.104Z,97197.00
2022-12-15T04:22:11.625Z,97198.69
2022-12-15T04:25:01.283Z,97212.16
2022-12-15T04:27:47.666Z,97207.94
2022-12-15T04:30:33.906Z,97210.56
2022-12-15T04:33:20.382Z,97199.59
2022-12-15T04:36:07.202Z,97208.00
2022-12-15T04:38:55.014Z,97193.66
2022-12-15T04:41:42.186Z,97201.22
2022-12-15T04:44:30.003Z,97192.03
2022-12-15T04:47:16.140Z,97204.59
2022-12-15T04:50:02.572Z,97202.16
2022-12-15T04:52:49.016Z,97208.00
2022-12-15T04:55:36.816Z,97217.28
2022-12-15T04:58:26.840Z,97212.22
2022-12-15T05:01:15.967Z,97194.53
2022-12-15T05:04:02.642Z,97201.28
2022-12-15T05:06:48.950Z,97203.81
2022-12-15T05:09:34.770Z,97204.69
2022-12-15T05:12:22.369Z,97198.75
2022-12-15T05:15:08.285Z,97197.88
2022-12-15T05:17:54.753Z,97197.88
2022-12-15T05:20:40.923Z,97205.50
2022-12-15T05:23:27.568Z,97204.63
2022-12-15T05:26:14.103Z,97206.28
2022-12-15T05:29:01.962Z,97218.88
2022-12-15T05:31:51.726Z,97229.88
2022-12-15T05:34:22.053Z,97218.94
2022-12-15T05:36:50.938Z,97218.16
2022-12-15T05:39:19.825Z,97226.50
2022-12-15T05:41:48.711Z,97219.78
2022-12-15T05:44:19.044Z,97211.34
2022-12-15T05:46:47.912Z,97213.00
2022-12-15T05:49:18.204Z,97213.88
2022-12-15T05:51:48.288Z,97219.00
2022-12-15T05:54:18.934Z,97220.69
2022-12-15T05:56:49.968Z,97222.34
2022-12-15T05:59:20.895Z,97215.53
2022-12-15T06:01:49.885Z,97213.94
2022-12-15T06:04:19.567Z,97231.59
2022-12-15T06:06:48.408Z,97240.00
2022-12-15T06:09:17.032Z,97223.13
2022-12-15T06:11:45.927Z,97224.78
2022-12-15T06:14:14.824Z,97230.66
2022-12-15T06:16:49.990Z,97220.53
2022-12-15T06:19:20.860Z,97231.47
2022-12-15T06:21:50.009Z,97252.56
2022-12-15T06:24:18.679Z,97240.84
2022-12-15T06:26:49.753Z,97247.63
2022-12-15T06:29:19.295Z,97234.13
2022-12-15T06:31:49.636Z,97232.47
2022-12-15T06:34:18.613Z,97245.97
2022-12-15T06:36:47.400Z,97236.66
2022-12-15T06:39:17.459Z,97251.81
2022-12-15T06:41:46.514Z,97239.13
2022-12-15T06:44:16.988Z,97246.66
2022-12-15T06:46:46.459Z,97243.28
2022-12-15T06:49:16.633Z,97244.13
2022-12-15T06:51:45.378Z,97244.97
2022-12-15T06:54:13.966Z,97237.47
2022-12-15T06:56:42.758Z,97232.41
2022-12-15T06:59:12.403Z,97245.03
2022-12-15T07:01:41.920Z,97245.84
2022-12-15T07:04:11.260Z,97238.22
2022-12-15T07:06:42.484Z,97228.94
2022-12-15T07:09:16.036Z,97233.19
2022-12-15T07:11:45.135Z,97238.28
2022-12-15T07:14:13.781Z,97235.72
2022-12-15T07:16:42.594Z,97239.13
2022-12-15T07:19:13.291Z,97239.13
2022-12-15T07:21:43.652Z,97248.41
2022-12-15T07:24:13.292Z,97245.88
2022-12-15T07:26:42.750Z,97241.66
2022-12-15T07:29:14.878Z,97249.25
2022-12-15T07:31:46.208Z,97262.75
2022-12-15T07:34:15.002Z,97256.00
2022-12-15T07:36:51.562Z,97253.53
2022-12-15T07:39:21.325Z,97253.47
2022-12-15T07:41:50.197Z,97268.66
2022-12-15T07:44:19.374Z,97261.94
2022-12-15T07:46:49.138Z,97271.91
2022-12-15T07:49:18.345Z,97255.91
2022-12-15T07:51:48.519Z,97258.38
2022-12-15T07:54:17.579Z,97248.19
2022-12-15T07:56:50.176Z,97259.25
2022-12-15T07:59:19.561Z,97264.22
2022-12-15T08:01:49.562Z,97270.09
2022-12-15T08:04:18.732Z,97272.63
2022-12-15T08:06:48.721Z,97272.63
2022-12-15T08:09:17.525Z,97291.13
2022-12-15T08:11:46.186Z,97296.13
2022-12-15T08:14:17.875Z,97296.19
2022-12-15T08:16:47.426Z,97299.59
2022-12-15T08:19:16.896Z,97292.81
2022-12-15T08:21:47.887Z,97305.41
2022-12-15T08:24:17.192Z,97311.31
2022-12-15T08:26:50.109Z,97322.25
2022-12-15T08:32:08.521Z,97331.19
2022-12-15T08:34:37.336Z,97321.13
2022-12-15T08:37:07.447Z,97319.53
2022-12-15T08:39:36.143Z,97319.47
2022-12-15T08:42:05.068Z,97311.81
2022-12-15T08:44:33.859Z,97301.69
2022-12-15T08:47:02.454Z,97304.03
2022-12-15T08:49:31.297Z,97311.44
2022-12-15T08:52:00.138Z,97309.78
2022-12-15T08:54:30.214Z,97314.63
2022-12-15T08:56:58.942Z,97322.44
2022-12-15T08:59:27.921Z,97333.47
2022-12-15T09:01:56.629Z,97335.13
2022-12-15T09:04:25.421Z,97337.56
2022-12-15T09:06:54.456Z,97329.91
2022-12-15T09:09:23.459Z,97327.38
2022-12-15T09:11:53.423Z,97318.06
2022-12-15T09:14:28.794Z,97318.88
2022-12-15T09:16:58.212Z,97311.22
2022-12-15T09:19:27.077Z,97317.09
2022-12-15T09:21:55.772Z,97317.03
2022-12-15T09:24:32.441Z,97313.50
2022-12-15T09:27:04.972Z,97315.91
2022-12-15T09:29:33.870Z,97314.13
2022-12-15T09:32:02.644Z,97316.59
2022-12-15T09:34:31.433Z,97318.09
2022-12-15T09:37:00.385Z,97309.66
2022-12-15T09:39:29.166Z,97303.66
2022-12-15T09:42:01.390Z,97312.97
2022-12-15T09:44:32.794Z,97310.38
2022-12-15T09:47:09.206Z,97306.19
2022-12-15T09:49:52.383Z,97305.19
2022-12-15T09:52:23.109Z,97303.41
2022-12-15T09:54:52.070Z,97306.66
2022-12-15T09:57:37.574Z,97307.63
2022-12-15T10:00:11.449Z,97311.03
2022-12-15T10:03:05.262Z,97311.03
2022-12-15T10:06:07.374Z,97306.66
2022-12-15T10:08:31.542Z,97318.44
2022-12-15T10:11:01.706Z,97324.28
2022-12-15T10:13:38.122Z,97327.66
2022-12-15T10:16:17.626Z,97320.81
2022-12-15T10:18:59.262Z,97319.97
2022-12-15T10:21:31.675Z,97317.50
2022-12-15T10:24:02.849Z,97319.88
2022-12-15T10:26:34.657Z,97316.50
2022-12-15T10:29:20.678Z,97318.97
2022-12-15T10:31:53.643Z,97320.69
2022-12-15T10:34:27.540Z,97314.78
2022-12-15T10:36:57.480Z,97306.34
2022-12-15T10:39:38.085Z,97297.94
2022-12-15T10:42:23.172Z,97278.44
2022-12-15T10:44:52.897Z,97281.63
2022-12-15T10:47:25.943Z,97264.75
2022-12-15T10:49:55.567Z,97272.41
2022-12-15T10:52:33.707Z,97271.63
2022-12-15T10:55:02.831Z,97276.66
2022-12-15T10:57:33.488Z,97278.38
2022-12-15T11:00:27.820Z,97274.09
2022-12-15T11:02:58.481Z,97261.34
2022-12-15T11:05:27.892Z,97252.88
2022-12-15T11:07:57.767Z,97251.03
2022-12-15T11:10:48.942Z,97246.03
2022-12-15T11:13:19.574Z,97237.41
2022-12-15T11:15:50.922Z,97238.13
2022-12-15T11:18:34.064Z,97250.03
2022-12-15T11:21:06.784Z,97246.59
2022-12-15T11:23:49.050Z,97239.72
2022-12-15T11:26:27.901Z,97235.34
2022-12-15T11:29:00.234Z,97236.94
2022-12-15T11:31:35.131Z,97232.69
2022-12-15T11:34:05.482Z,97235.19
2022-12-15T11:37:04.325Z,97227.50
2022-12-15T11:39:43.111Z,97241.75
2022-12-15T11:42:16.288Z,97241.84
2022-12-15T11:44:51.808Z,97237.56
2022-12-15T11:47:26.387Z,97238.38
2022-12-15T11:50:07.176Z,97234.94
2022-12-15T11:52:54.082Z,97231.59
2022-12-15T11:55:32.118Z,97219.72
2022-12-15T11:58:32.143Z,97220.56
2022-12-15T12:01:06.325Z,97201.16
2022-12-15T12:03:41.992Z,97196.81
2022-12-15T12:06:15.724Z,97196.81
2022-12-15T12:09:07.366Z,97190.00
2022-12-15T12:11:41.451Z,97183.25
2022-12-15T12:14:20.151Z,97167.97
2022-12-15T12:16:52.866Z,97165.28
2022-12-15T12:19:26.234Z,97162.69
2022-12-15T12:22:02.071Z,97149.03
2022-12-15T12:24:33.958Z,97149.75
2022-12-15T12:27:05.832Z,97148.06
2022-12-15T12:29:36.668Z,97154.03
2022-12-15T12:32:08.963Z,97146.34
2022-12-15T12:34:51.452Z,97136.09
2022-12-15T12:37:27.139Z,97148.72
2022-12-15T12:40:02.020Z,97139.31
2022-12-15T12:42:37.271Z,97132.50
2022-12-15T12:45:07.388Z,97129.75
2022-12-15T12:47:38.521Z,97132.97
2022-12-15T12:50:14.671Z,97137.22
2022-12-15T12:52:51.055Z,97134.63
2022-12-15T12:55:36.733Z,97131.19
2022-12-15T12:58:35.861Z,97127.66
2022-12-15T13:01:14.479Z,97128.25
2022-12-15T13:03:44.956Z,97136.50
2022-12-15T13:06:44.110Z,97124.66
2022-12-15T13:09:26.171Z,97116.22
2022-12-15T13:12:20.933Z,97113.84
2022-12-15T13:14:52.120Z,97120.66
2022-12-15T13:17:29.775Z,97113.66
2022-12-15T13:20:29.359Z,97104.22
2022-12-15T13:23:35.126Z,97102.44
2022-12-15T13:26:20.471Z,97093.94
2022-12-15T13:28:59.079Z,97091.41
2022-12-15T13:31:35.282Z,97079.66
2022-12-15T13:34:17.366Z,97080.50
2022-12-15T13:36:55.138Z,97066.00
2022-12-15T13:39:59.086Z,97061.88
2022-12-15T13:42:36.999Z,97055.13
2022-12-15T13:45:44.541Z,97060.16
2022-12-15T13:48:29.426Z,97060.06
2022-12-15T13:51:05.444Z,97054.38
2022-12-15T13:53:43.144Z,97053.44
2022-12-15T13:56:39.023Z,97053.53
2022-12-15T13:59:20.581Z,97065.41
2022-12-15T14:01:56.451Z,97077.47
2022-12-15T14:04:26.570Z,97070.50
2022-12-15T14:06:57.243Z,97067.88
2022-12-15T14:09:30.486Z,97065.34
2022-12-15T14:11:59.951Z,97073.09
2022-12-15T14:14:33.785Z,97073.09
2022-12-15T14:17:08.254Z,97072.41
2022-12-15T14:19:41.792Z,97074.19
2022-12-15T14:22:29.509Z,97067.28
2022-12-15T14:25:03.629Z,97063.88
2022-12-15T14:27:34.283Z,97071.50
2022-12-15T14:30:17.095Z,97067.38
2022-12-15T14:32:49.262Z,97070.72
2022-12-15T14:35:24.469Z,97063.09
2022-12-15T14:37:53.702Z,97074.03
2022-12-15T14:40:28.461Z,97074.13
2022-12-15T14:42:57.989Z,97071.66
2022-12-15T14:45:29.901Z,97074.28
2022-12-15T14:50:51.232Z,97084.41
2022-12-15T14:53:21.759Z,97071.88
2022-12-15T14:55:51.495Z,97076.91
2022-12-15T14:58:38.185Z,97073.59
2022-12-15T15:01:24.938Z,97082.19
2022-12-15T15:04:02.807Z,97072.06
2022-12-15T15:06:37.222Z,97071.97
2022-12-15T15:09:18.792Z,97077.13
2022-12-15T15:11:48.156Z,97068.56
2022-12-15T15:14:20.032Z,97063.59
2022-12-15T15:17:05.439Z,97066.13
2022-12-15T15:19:39.334Z,97061.16
2022-12-15T15:22:21.608Z,97061.28
2022-12-15T15:24:53.004Z,97068.09
2022-12-15T15:27:27.843Z,97070.56
2022-12-15T15:30:21.786Z,97068.16
2022-12-15T15:32:55.395Z,97075.78
2022-12-15T15:35:30.139Z,97083.19
2022-12-15T15:38:03.756Z,97085.69
2022-12-15T15:40:32.741Z,97079.00
2022-12-15T15:43:01.766Z,97084.13
2022-12-15T15:45:31.114Z,97091.91
2022-12-15T15:47:59.830Z,97086.72
2022-12-15T15:50:31.007Z,97084.22
2022-12-15T15:53:00.160Z,97085.06
2022-12-15T15:55:37.786Z,97086.03
2022-12-15T15:58:12.614Z,97083.41
2022-12-15T16:00:41.731Z,97089.38
2022-12-15T16:03:10.967Z,97090.13
2022-12-15T16:05:41.763Z,97080.16
2022-12-15T16:08:14.976Z,97079.25
2022-12-15T16:10:45.773Z,97077.53
2022-12-15T16:13:16.709Z,97073.19
2022-12-15T16:15:45.768Z,97069.88
2022-12-15T16:18:15.055Z,97068.25
2022-12-15T16:20:48.939Z,97068.34
2022-12-15T16:23:20.066Z,97065.03
2022-12-15T16:25:51.397Z,97065.06
2022-12-15T16:28:22.102Z,97072.69
2022-12-15T16:30:51.429Z,97075.28
2022-12-15T16:33:20.344Z,97068.44
2022-12-15T16:35:51.603Z,97068.44
2022-12-15T16:38:24.296Z,97070.22
2022-12-15T16:40:53.363Z,97067.69
2022-12-15T16:43:29.003Z,97067.69
2022-12-15T16:45:59.371Z,97069.38
2022-12-15T16:48:29.468Z,97073.72
2022-12-15T16:51:00.526Z,97070.28
2022-12-15T16:53:30.454Z,97063.47
2022-12-15T16:56:00.117Z,97068.50
2022-12-15T16:58:30.371Z,97068.56
2022-12-15T17:00:59.526Z,97067.75
2022-12-15T17:03:28.936Z,97065.13
2022-12-15T17:06:02.029Z,97058.50
2022-12-15T17:08:36.448Z,97051.75
2022-12-15T17:11:06.304Z,97039.94
2022-12-15T17:13:42.103Z,97043.44
2022-12-15T17:16:15.185Z,97041.69
2022-12-15T17:18:44.685Z,97034.09
2022-12-15T17:21:17.342Z,97030.00
2022-12-15T17:23:47.220Z,97021.50
2022-12-15T17:26:28.194Z,97022.28
2022-12-15T17:28:59.514Z,97023.16
2022-12-15T17:31:34.623Z,97017.97
2022-12-15T17:34:08.402Z,97017.22
2022-12-15T17:36:38.895Z,97010.38
2022-12-15T17:39:10.397Z,97010.38
2022-12-15T17:44:34.098Z,97007.84
2022-12-15T17:47:04.566Z,97006.22
2022-12-15T17:49:36.423Z,97008.88
2022-12-15T17:52:15.226Z,97009.69
2022-12-15T17:54:44.164Z,97005.59
2022-12-15T17:57:13.603Z,97009.78
2022-12-15T17:59:42.294Z,97012.16
2022-12-15T18:02:14.049Z,97014.78
2022-12-15T18:04:43.576Z,97011.34
2022-12-15T18:07:19.230Z,97017.31
2022-12-15T18:09:48.155Z,97014.78
2022-12-15T18:12:21.274Z,97019.94
2022-12-15T18:14:50.161Z,97012.47
2022-12-15T18:17:19.058Z,97001.50
2022-12-15T18:19:47.906Z,96999.81
2022-12-15T18:22:22.020Z,97003.06
2022-12-15T18:24:51.515Z,97003.81
2022-12-15T18:27:23.802Z,97013.00
2022-12-15T18:29:52.562Z,97014.78
2022-12-15T18:32:22.887Z,97007.19
2022-12-15T18:34:52.439Z,97006.50
2022-12-15T18:37:24.860Z,97000.63
2022-12-15T18:39:55.365Z,97003.06
2022-12-15T18:42:26.039Z,97001.59
2022-12-15T18:44:56.584Z,97010.16
2022-12-15T18:47:26.417Z,97012.50
2022-12-15T18:49:55.054Z,97006.56
2022-12-15T18:52:31.422Z,97006.56
2022-12-15T18:55:01.830Z,96996.44
2022-12-15T18:57:32.343Z,96988.84
2022-12-15T19:00:02.118Z,96990.59
2022-12-15T19:02:30.994Z,96992.44
2022-12-15T19:04:59.692Z,96988.06
2022-12-15T19:07:29.788Z,96991.53
2022-12-15T19:09:58.649Z,96987.34
2022-12-15T19:12:27.512Z,96989.13
2022-12-15T19:14:56.445Z,96978.19
2022-12-15T19:17:43.392Z,96976.31
2022-12-15T19:20:35.835Z,96972.22
2022-12-15T19:23:06.452Z,96975.50
2022-12-15T19:25:35.482Z,96956.09
2022-12-15T19:28:06.946Z,96959.44
2022-12-15T19:30:41.954Z,96939.97
2022-12-15T19:33:11.832Z,96936.59
2022-12-15T19:35:42.628Z,96934.16
2022-12-15T19:38:24.333Z,96930.75
2022-12-15T19:40:54.580Z,96939.19
2022-12-15T19:43:24.610Z,96939.22
2022-12-15T19:45:54.034Z,96945.03
2022-12-15T19:48:24.108Z,96949.31
2022-12-15T19:50:54.750Z,96947.72
2022-12-15T19:53:28.539Z,96948.59
2022-12-15T19:55:59.898Z,96957.22
2022-12-15T19:58:30.897Z,96957.41
2022-12-15T20:01:01.511Z,96962.44
2022-12-15T20:03:32.089Z,96964.97
2022-12-15T20:06:03.086Z,96966.69
2022-12-15T20:08:36.814Z,96959.91
2022-12-15T20:11:06.168Z,96967.50
2022-12-15T20:13:35.671Z,96966.47
2022-12-15T20:16:05.228Z,96963.94
2022-12-15T20:18:34.723Z,96969.09
2022-12-15T20:21:04.100Z,96962.34
2022-12-15T20:23:34.923Z,96964.09
2022-12-15T20:26:03.949Z,96959.81
2022-12-15T20:28:32.991Z,96957.97
2022-12-15T20:31:01.708Z,96964.91
2022-12-15T20:33:30.873Z,96961.72
2022-12-15T20:36:00.750Z,96966.81
2022-12-15T20:38:31.810Z,96973.47
2022-12-15T20:41:03.704Z,96974.25
2022-12-15T20:43:34.756Z,96976.91
2022-12-15T20:46:06.585Z,96975.28
2022-12-15T20:48:36.528Z,96978.06
2022-12-15T20:51:09.538Z,96983.84
2022-12-15T20:53:39.795Z,96988.91
2022-12-15T20:56:10.566Z,96986.50
2022-12-15T20:58:39.533Z,96987.47
2022-12-15T21:01:19.077Z,96985.16
2022-12-15T21:03:48.458Z,96983.50
2022-12-15T21:06:17.897Z,96975.13
2022-12-15T21:08:46.878Z,96975.16
2022-12-15T21:11:19.328Z,96965.06
2022-12-15T21:13:49.925Z,96966.06
2022-12-15T21:16:20.935Z,96967.75
2022-12-15T21:19:19.170Z,96961.81
2022-12-15T21:21:41.150Z,96961.97
2022-12-15T21:24:16.341Z,96964.50
2022-12-15T21:26:46.289Z,96961.19
2022-12-15T21:29:17.873Z,96959.28
2022-12-15T21:31:47.078Z,96952.53
2022-12-15T21:34:16.068Z,96946.75
2022-12-15T21:36:47.876Z,96940.84
2022-12-15T21:39:22.418Z,96945.97
2022-12-15T21:41:52.585Z,96951.09
2022-12-15T21:44:24.006Z,96957.13
2022-12-15T21:46:52.783Z,96946.94
2022-12-15T21:49:22.348Z,96942.72
2022-12-15T21:51:53.760Z,96947.72
2022-12-15T21:54:30.719Z,96950.47
2022-12-15T21:57:02.887Z,96939.44
2022-12-15T21:59:33.167Z,96944.50
2022-12-15T22:02:02.431Z,96950.66
2022-12-15T22:04:33.819Z,96953.31
2022-12-15T22:07:02.643Z,96953.94
2022-12-15T22:09:31.434Z,96955.75
2022-12-15T22:12:02.026Z,96958.13
2022-12-15T22:14:32.920Z,96953.84
2022-12-15T22:17:03.175Z,96957.44
2022-12-15T22:19:31.816Z,96963.22
2022-12-15T22:22:00.561Z,96959.03
2022-12-15T22:24:29.136Z,96965.13
2022-12-15T22:26:58.347Z,96972.00
2022-12-15T22:29:31.503Z,96965.34
2022-12-15T22:32:00.125Z,96975.38
2022-12-15T22:34:29.036Z,96977.28
2022-12-15T22:36:57.687Z,96982.47
2022-12-15T22:39:26.298Z,96985.88
2022-12-15T22:41:55.156Z,96987.47
2022-12-15T22:44:26.143Z,96995.94
2022-12-15T22:46:58.009Z,96993.53
2022-12-15T22:49:29.878Z,97000.25
2022-12-15T22:51:58.656Z,96996.16
2022-12-15T22:54:29.276Z,96995.31
2022-12-15T22:57:02.013Z,96994.50
2022-12-15T22:59:33.588Z,96980.28
2022-12-15T23:02:04.475Z,96989.63
2022-12-15T23:04:33.686Z,96994.59
2022-12-15T23:07:04.995Z,96994.63
2022-12-15T23:09:33.947Z,96998.25
2022-12-15T23:12:01.957Z,96998.41
2022-12-15T23:14:48.460Z,97001.75
2022-12-15T23:17:18.692Z,96996.69
2022-12-15T23:19:47.566Z,96994.28
2022-12-15T23:22:16.322Z,96997.53
2022-12-15T23:24:44.901Z,96992.50
2022-12-15T23:27:13.634Z,96990.88
2022-12-15T23:29:42.243Z,96989.06
2022-12-15T23:32:10.793Z,96996.81
2022-12-15T23:34:40.942Z,96993.50
2022-12-15T23:37:09.494Z,96990.22
2022-12-15T23:39:38.227Z,96984.44
2022-12-15T23:42:07.086Z,96990.31
2022-12-15T23:44:37.440Z,96986.06
2022-12-15T23:47:06.578Z,96994.53
2022-12-15T23:49:35.217Z,96992.78
2022-12-15T23:52:05.663Z,97002.00
2022-12-15T23:54:34.272Z,97000.22
2022-12-15T23:57:03.317Z,97006.06
2022-12-15T23:59:32.049Z,96996.75
